createdAt,value
2023-03-25T00:01:16.757Z,100.00
2023-03-25T00:03:50.676Z,100.00
2023-03-25T00:06:18.968Z,100.00
2023-03-25T00:08:47.044Z,100.00
2023-03-25T00:11:14.670Z,100.00
2023-03-25T00:13:42.538Z,100.00
2023-03-25T00:16:10.792Z,100.00
2023-03-25T00:18:39.982Z,100.00
2023-03-25T00:21:11.622Z,100.00
2023-03-25T00:23:40.556Z,100.00
2023-03-25T00:26:09.160Z,100.00
2023-03-25T00:28:39.114Z,100.00
2023-03-25T00:31:09.211Z,100.00
2023-03-25T00:33:36.861Z,100.00
2023-03-25T00:36:05.669Z,100.00
2023-03-25T00:38:38.050Z,100.00
2023-03-25T00:41:14.085Z,100.00
2023-03-25T00:43:44.165Z,100.00
2023-03-25T00:46:11.976Z,100.00
2023-03-25T00:48:39.786Z,100.00
2023-03-25T00:51:09.866Z,100.00
2023-03-25T00:53:39.307Z,100.00
2023-03-25T00:56:08.069Z,100.00
2023-03-25T00:58:35.788Z,100.00
2023-03-25T01:01:10.724Z,100.00
2023-03-25T01:03:38.510Z,100.00
2023-03-25T01:06:11.542Z,100.00
2023-03-25T01:08:43.484Z,100.00
2023-03-25T01:11:19.463Z,100.00
2023-03-25T01:13:47.242Z,100.00
2023-03-25T01:16:15.071Z,100.00
2023-03-25T01:18:42.796Z,100.00
2023-03-25T01:21:10.680Z,100.00
2023-03-25T01:23:38.421Z,100.00
2023-03-25T01:26:07.814Z,100.00
2023-03-25T01:28:35.723Z,100.00
2023-03-25T01:31:04.900Z,100.00
2023-03-25T01:33:32.741Z,100.00
2023-03-25T01:36:04.396Z,100.00
2023-03-25T01:38:32.074Z,100.00
2023-03-25T01:40:59.847Z,100.00
2023-03-25T01:43:28.913Z,100.00
2023-03-25T01:45:57.080Z,100.00
2023-03-25T01:48:32.909Z,100.00
2023-03-25T01:51:05.369Z,100.00
2023-03-25T01:53:33.817Z,100.00
2023-03-25T01:56:05.493Z,100.00
2023-03-25T01:58:36.113Z,100.00
2023-03-25T02:01:05.066Z,100.00
2023-03-25T02:03:37.011Z,100.00
2023-03-25T02:06:08.446Z,100.00
2023-03-25T02:08:39.556Z,100.00
2023-03-25T02:11:08.441Z,100.00
2023-03-25T02:13:40.436Z,100.00
2023-03-25T02:16:21.548Z,100.00
2023-03-25T02:19:02.289Z,100.00
2023-03-25T02:22:05.847Z,100.00
2023-03-25T02:25:20.046Z,100.00
2023-03-25T02:27:58.135Z,100.00
2023-03-25T02:30:46.298Z,100.00
2023-03-25T02:33:38.172Z,100.00
2023-03-25T02:36:42.642Z,100.00
2023-03-25T02:39:15.748Z,100.00
2023-03-25T02:41:51.370Z,100.00
2023-03-25T02:44:27.541Z,100.00
2023-03-25T02:46:58.557Z,100.00
2023-03-25T02:49:31.482Z,100.00
2023-03-25T02:52:02.675Z,100.00
2023-03-25T02:54:34.597Z,100.00
2023-03-25T02:57:03.652Z,100.00
2023-03-25T02:59:33.545Z,100.00
2023-03-25T03:02:05.013Z,100.00
2023-03-25T03:04:32.730Z,100.00
2023-03-25T03:07:01.082Z,100.00
2023-03-25T03:09:39.799Z,100.00
2023-03-25T03:12:33.325Z,100.00
2023-03-25T03:15:11.200Z,100.00
2023-03-25T03:17:50.383Z,100.00
2023-03-25T03:20:26.765Z,100.00
2023-03-25T03:23:06.097Z,100.00
2023-03-25T03:25:39.176Z,100.00
2023-03-25T03:28:12.041Z,100.00
2023-03-25T03:30:47.004Z,100.00
2023-03-25T03:33:21.882Z,100.00
2023-03-25T03:35:57.258Z,100.00
2023-03-25T03:38:28.466Z,100.00
2023-03-25T03:41:01.289Z,100.00
2023-03-25T03:43:34.013Z,100.00
2023-03-25T03:46:06.507Z,100.00
2023-03-25T03:48:40.252Z,100.00
2023-03-25T03:51:12.944Z,100.00
2023-03-25T03:53:43.427Z,100.00
2023-03-25T03:56:21.903Z,100.00
2023-03-25T03:58:58.485Z,100.00
2023-03-25T04:01:34.614Z,100.00
2023-03-25T04:04:06.133Z,100.00
2023-03-25T04:06:42.056Z,100.00
2023-03-25T04:09:18.513Z,100.00
2023-03-25T04:11:54.673Z,100.00
2023-03-25T04:14:22.934Z,100.00
2023-03-25T04:16:53.086Z,100.00
2023-03-25T04:19:22.277Z,100.00
2023-03-25T04:21:50.050Z,100.00
2023-03-25T04:24:19.754Z,100.00
2023-03-25T04:26:49.804Z,100.00
2023-03-25T04:29:18.963Z,100.00
2023-03-25T04:31:49.680Z,100.00
2023-03-25T04:34:17.514Z,100.00
2023-03-25T04:36:46.839Z,100.00
2023-03-25T04:39:17.719Z,100.00
2023-03-25T04:41:45.504Z,100.00
2023-03-25T04:44:14.844Z,100.00
2023-03-25T04:46:42.556Z,100.00
2023-03-25T04:49:15.059Z,100.00
2023-03-25T04:51:44.854Z,100.00
2023-03-25T04:54:12.732Z,100.00
2023-03-25T04:56:40.536Z,100.00
2023-03-25T04:59:09.075Z,100.00
2023-03-25T05:01:42.150Z,100.00
2023-03-25T05:04:12.544Z,100.00
2023-03-25T05:06:42.650Z,100.00
2023-03-25T05:09:11.626Z,100.00
2023-03-25T05:11:41.806Z,100.00
2023-03-25T05:14:10.389Z,100.00
2023-03-25T05:16:40.150Z,100.00
2023-03-25T05:19:08.683Z,100.00
2023-03-25T05:21:37.514Z,100.00
2023-03-25T05:24:08.214Z,100.00
2023-03-25T05:26:36.642Z,100.00
2023-03-25T05:29:05.567Z,100.00
2023-03-25T05:31:33.260Z,100.00
2023-03-25T05:34:06.448Z,100.00
2023-03-25T05:36:34.182Z,100.00
2023-03-25T05:39:02.480Z,100.00
2023-03-25T05:41:33.421Z,100.00
2023-03-25T05:44:01.952Z,100.00
2023-03-25T05:46:30.463Z,100.00
2023-03-25T05:49:00.812Z,100.00
2023-03-25T05:51:33.489Z,100.00
2023-03-25T05:54:02.069Z,100.00
2023-03-25T05:56:30.418Z,100.00
2023-03-25T05:58:58.256Z,100.00
2023-03-25T06:01:33.430Z,100.00
2023-03-25T06:04:03.309Z,100.00
2023-03-25T06:06:34.221Z,100.00
2023-03-25T06:09:02.892Z,100.00
2023-03-25T06:11:31.065Z,100.00
2023-03-25T06:13:59.372Z,100.00
2023-03-25T06:16:29.655Z,100.00
2023-03-25T06:19:00.195Z,100.00
2023-03-25T06:21:29.466Z,100.00
2023-03-25T06:24:01.447Z,100.00
2023-03-25T06:26:29.351Z,100.00
2023-03-25T06:28:58.339Z,100.00
2023-03-25T06:31:27.375Z,100.00
2023-03-25T06:33:56.940Z,100.00
2023-03-25T06:36:25.717Z,100.00
2023-03-25T06:38:54.373Z,100.00
2023-03-25T06:41:25.565Z,100.00
2023-03-25T06:43:53.265Z,100.00
2023-03-25T06:46:21.038Z,100.00
2023-03-25T06:48:48.802Z,100.00
2023-03-25T06:51:17.459Z,100.00
2023-03-25T06:53:45.319Z,100.00
2023-03-25T06:56:13.743Z,100.00
2023-03-25T06:58:43.243Z,100.00
2023-03-25T07:01:11.105Z,100.00
2023-03-25T07:03:39.178Z,100.00
2023-03-25T07:06:07.880Z,100.00
2023-03-25T07:08:35.927Z,100.00
2023-03-25T07:11:04.929Z,100.00
2023-03-25T07:13:32.889Z,100.00
2023-03-25T07:16:03.379Z,100.00
2023-03-25T07:18:33.242Z,100.00
2023-03-25T07:21:01.166Z,100.00
2023-03-25T07:23:28.931Z,100.00
2023-03-25T07:25:57.945Z,100.00
2023-03-25T07:28:26.646Z,100.00
2023-03-25T07:30:54.270Z,100.00
2023-03-25T07:33:23.262Z,100.00
2023-03-25T07:35:51.372Z,100.00
2023-03-25T07:38:19.425Z,100.00
2023-03-25T07:40:50.300Z,100.00
2023-03-25T07:43:18.466Z,100.00
2023-03-25T07:45:46.675Z,100.00
2023-03-25T07:48:16.272Z,100.00
2023-03-25T07:50:46.701Z,100.00
2023-03-25T07:53:14.776Z,100.00
2023-03-25T07:55:42.497Z,100.00
2023-03-25T07:58:10.573Z,100.00
2023-03-25T08:00:38.431Z,100.00
2023-03-25T08:03:06.598Z,100.00
2023-03-25T08:05:37.767Z,100.00
2023-03-25T08:08:07.665Z,100.00
2023-03-25T08:10:35.866Z,100.00
2023-03-25T08:13:06.017Z,100.00
2023-03-25T08:15:33.829Z,100.00
2023-03-25T08:18:01.763Z,100.00
2023-03-25T08:20:29.631Z,100.00
2023-03-25T08:22:58.439Z,100.00
2023-03-25T08:25:27.912Z,100.00
2023-03-25T08:27:55.880Z,100.00
2023-03-25T08:30:23.706Z,100.00
2023-03-25T08:32:54.703Z,100.00
2023-03-25T08:35:25.938Z,100.00
2023-03-25T08:37:53.728Z,100.00
2023-03-25T08:40:21.509Z,100.00
2023-03-25T08:42:50.910Z,100.00
2023-03-25T08:45:20.525Z,100.00
2023-03-25T08:47:48.162Z,100.00
2023-03-25T08:50:16.051Z,100.00
2023-03-25T08:52:43.702Z,100.00
2023-03-25T08:55:12.602Z,100.00
2023-03-25T08:57:42.398Z,100.00
2023-03-25T09:00:14.170Z,100.00
2023-03-25T09:02:43.027Z,100.00
2023-03-25T09:05:11.364Z,100.00
2023-03-25T09:07:39.881Z,100.00
2023-03-25T09:10:08.866Z,100.00
2023-03-25T09:12:37.031Z,100.00
2023-03-25T09:15:07.969Z,100.00
2023-03-25T09:17:37.054Z,100.00
2023-03-25T09:20:08.510Z,100.00
2023-03-25T09:22:42.839Z,100.00
2023-03-25T09:25:10.690Z,100.00
2023-03-25T09:27:38.980Z,100.00
2023-03-25T09:30:08.847Z,100.00
2023-03-25T09:32:38.074Z,100.00
2023-03-25T09:35:06.845Z,100.00
2023-03-25T09:37:35.158Z,100.00
2023-03-25T09:40:05.188Z,100.00
2023-03-25T09:42:48.606Z,100.00
2023-03-25T09:45:27.227Z,100.00
2023-03-25T09:48:01.246Z,100.00
2023-03-25T09:50:32.246Z,100.00
2023-03-25T09:53:04.473Z,100.00
2023-03-25T09:55:36.718Z,100.00
2023-03-25T09:58:24.766Z,100.00
2023-03-25T10:00:59.217Z,100.00
2023-03-25T10:03:36.104Z,100.00
2023-03-25T10:06:14.676Z,100.00
2023-03-25T10:08:53.633Z,100.00
2023-03-25T10:11:30.529Z,100.00
2023-03-25T10:14:06.164Z,100.00
2023-03-25T10:16:47.453Z,100.00
2023-03-25T10:19:39.392Z,100.00
2023-03-25T10:22:12.887Z,100.00
2023-03-25T10:24:47.000Z,100.00
2023-03-25T10:27:24.386Z,100.00
2023-03-25T10:29:56.479Z,100.00
2023-03-25T10:32:33.431Z,98.23
2023-03-25T10:35:05.375Z,96.56
2023-03-25T10:37:39.365Z,97.38
2023-03-25T10:40:16.878Z,96.91
2023-03-25T10:42:57.129Z,94.36
2023-03-25T10:45:25.966Z,95.22
2023-03-25T10:47:59.460Z,89.73
2023-03-25T10:50:28.571Z,87.66
2023-03-25T10:52:57.292Z,88.46
2023-03-25T10:55:29.169Z,89.50
2023-03-25T10:57:57.638Z,88.83
2023-03-25T11:00:26.535Z,88.25
2023-03-25T11:02:56.026Z,86.29
2023-03-25T11:05:29.355Z,83.31
2023-03-25T11:08:14.719Z,81.75
2023-03-25T11:10:51.560Z,82.62
2023-03-25T11:13:22.104Z,82.17
2023-03-25T11:15:51.799Z,81.76
2023-03-25T11:18:23.986Z,81.51
2023-03-25T11:20:57.484Z,82.59
2023-03-25T11:23:28.539Z,80.27
2023-03-25T11:26:06.021Z,80.59
2023-03-25T11:28:39.082Z,81.03
2023-03-25T11:31:10.098Z,81.44
2023-03-25T11:33:39.499Z,80.50
2023-03-25T11:36:30.728Z,81.35
2023-03-25T11:39:01.147Z,81.05
2023-03-25T11:41:31.753Z,82.02
2023-03-25T11:43:59.703Z,81.87
2023-03-25T11:46:30.763Z,81.96
2023-03-25T11:49:08.723Z,82.84
2023-03-25T11:51:39.364Z,83.19
2023-03-25T11:54:13.677Z,83.30
2023-03-25T11:56:44.788Z,83.78
2023-03-25T11:59:22.489Z,84.86
2023-03-25T12:01:52.384Z,86.59
2023-03-25T12:04:22.254Z,87.40
2023-03-25T12:06:57.937Z,87.81
2023-03-25T12:09:29.068Z,88.69
2023-03-25T12:12:25.594Z,88.81
2023-03-25T12:15:05.741Z,88.87
2023-03-25T12:17:48.241Z,87.71
2023-03-25T12:20:25.810Z,88.01
2023-03-25T12:23:02.258Z,86.84
2023-03-25T12:25:53.725Z,87.07
2023-03-25T12:28:42.980Z,86.87
2023-03-25T12:31:24.308Z,85.72
2023-03-25T12:34:06.798Z,87.62
2023-03-25T12:36:43.936Z,89.25
2023-03-25T12:39:42.829Z,90.12
2023-03-25T12:42:33.372Z,90.18
2023-03-25T12:45:24.750Z,91.31
2023-03-25T12:47:57.403Z,91.87
2023-03-25T12:50:38.487Z,91.55
2023-03-25T12:53:23.299Z,91.22
2023-03-25T12:56:03.038Z,90.11
2023-03-25T12:58:47.818Z,88.03
2023-03-25T13:01:26.514Z,86.62
2023-03-25T13:04:24.268Z,82.98
2023-03-25T13:07:02.826Z,82.48
2023-03-25T13:09:35.319Z,85.75
2023-03-25T13:12:11.230Z,81.35
2023-03-25T13:14:42.158Z,80.03
2023-03-25T13:17:19.150Z,78.44
2023-03-25T13:19:47.750Z,81.31
2023-03-25T13:22:24.842Z,82.54
2023-03-25T13:24:56.675Z,83.18
2023-03-25T13:27:26.846Z,90.49
2023-03-25T13:29:57.672Z,99.70
2023-03-25T13:32:33.875Z,100.00
2023-03-25T13:35:07.451Z,100.00
2023-03-25T13:37:39.129Z,100.00
2023-03-25T13:40:24.367Z,98.35
2023-03-25T13:42:59.345Z,98.44
2023-03-25T13:45:30.237Z,99.04
2023-03-25T13:48:06.924Z,99.42
2023-03-25T13:50:36.454Z,100.00
2023-03-25T13:53:09.895Z,100.00
2023-03-25T13:55:40.957Z,100.00
2023-03-25T13:58:39.593Z,100.00
2023-03-25T14:01:33.600Z,100.00
2023-03-25T14:04:23.989Z,100.00
2023-03-25T14:07:12.505Z,100.00
2023-03-25T14:10:19.197Z,100.00
2023-03-25T14:12:52.575Z,100.00
2023-03-25T14:15:24.792Z,100.00
2023-03-25T14:17:54.186Z,100.00
2023-03-25T14:20:25.356Z,100.00
2023-03-25T14:22:58.610Z,100.00
2023-03-25T14:25:33.941Z,100.00
2023-03-25T14:28:03.598Z,100.00
2023-03-25T14:30:33.793Z,100.00
2023-03-25T14:33:04.083Z,100.00
2023-03-25T14:35:56.010Z,100.00
2023-03-25T14:38:51.316Z,100.00
2023-03-25T14:41:57.146Z,100.00
2023-03-25T14:44:28.751Z,100.00
2023-03-25T14:47:35.387Z,100.00
2023-03-25T14:50:07.854Z,100.00
2023-03-25T14:52:41.431Z,100.00
2023-03-25T14:55:15.837Z,100.00
2023-03-25T14:57:48.274Z,100.00
2023-03-25T15:00:28.228Z,100.00
2023-03-25T15:03:04.334Z,100.00
2023-03-25T15:05:34.719Z,100.00
2023-03-25T15:08:14.359Z,100.00
2023-03-25T15:10:44.324Z,100.00
2023-03-25T15:13:19.636Z,100.00
2023-03-25T15:16:00.711Z,100.00
2023-03-25T15:19:14.111Z,100.00
2023-03-25T15:22:20.061Z,100.00
2023-03-25T15:24:52.677Z,100.00
2023-03-25T15:27:37.969Z,100.00
2023-03-25T15:30:15.563Z,100.00
2023-03-25T15:32:55.703Z,100.00
2023-03-25T15:35:39.184Z,100.00
2023-03-25T15:38:44.540Z,100.00
2023-03-25T15:41:27.005Z,100.00
2023-03-25T15:44:11.521Z,100.00
2023-03-25T15:47:09.784Z,100.00
2023-03-25T15:50:07.635Z,100.00
2023-03-25T15:52:54.451Z,100.00
2023-03-25T15:55:27.807Z,100.00
2023-03-25T15:58:00.710Z,100.00
2023-03-25T16:00:36.766Z,100.00
2023-03-25T16:03:09.050Z,100.00
2023-03-25T16:05:39.934Z,100.00
2023-03-25T16:08:11.239Z,100.00
2023-03-25T16:10:41.416Z,100.00
2023-03-25T16:13:13.582Z,100.00
2023-03-25T16:15:41.973Z,100.00
2023-03-25T16:18:11.925Z,100.00
2023-03-25T16:20:39.657Z,100.00
2023-03-25T16:23:14.646Z,100.00
2023-03-25T16:25:45.491Z,100.00
2023-03-25T16:28:17.413Z,100.00
2023-03-25T16:30:50.182Z,100.00
2023-03-25T16:33:21.586Z,100.00
2023-03-25T16:35:55.319Z,100.00
2023-03-25T16:38:25.402Z,100.00
2023-03-25T16:41:00.784Z,100.00
2023-03-25T16:43:30.263Z,100.00
2023-03-25T16:46:00.591Z,100.00
2023-03-25T16:48:33.685Z,100.00
2023-03-25T16:51:12.019Z,100.00
2023-03-25T16:53:40.981Z,100.00
2023-03-25T16:56:24.610Z,100.00
2023-03-25T16:58:58.772Z,100.00
2023-03-25T17:01:29.826Z,100.00
2023-03-25T17:04:09.828Z,100.00
2023-03-25T17:06:41.577Z,100.00
2023-03-25T17:09:16.223Z,100.00
2023-03-25T17:11:46.752Z,100.00
2023-03-25T17:14:19.311Z,100.00
2023-03-25T17:16:49.578Z,100.00
2023-03-25T17:19:20.573Z,100.00
2023-03-25T17:22:13.122Z,100.00
2023-03-25T17:24:43.312Z,100.00
2023-03-25T17:27:36.375Z,100.00
2023-03-25T17:30:19.725Z,100.00
2023-03-25T17:32:49.024Z,100.00
2023-03-25T17:35:25.267Z,100.00
2023-03-25T17:37:54.794Z,100.00
2023-03-25T17:40:25.602Z,100.00
2023-03-25T17:42:56.338Z,100.00
2023-03-25T17:45:38.242Z,100.00
2023-03-25T17:48:10.627Z,100.00
2023-03-25T17:50:38.532Z,100.00
2023-03-25T17:53:06.842Z,100.00
2023-03-25T17:55:40.097Z,100.00
2023-03-25T17:58:20.568Z,100.00
2023-03-25T18:00:52.008Z,100.00
2023-03-25T18:03:25.621Z,100.00
2023-03-25T18:05:54.370Z,100.00
2023-03-25T18:08:25.604Z,100.00
2023-03-25T18:10:57.333Z,100.00
2023-03-25T18:13:29.104Z,100.00
2023-03-25T18:16:03.004Z,100.00
2023-03-25T18:18:37.501Z,100.00
2023-03-25T18:21:09.588Z,100.00
2023-03-25T18:23:38.812Z,100.00
2023-03-25T18:26:13.236Z,100.00
2023-03-25T18:28:45.395Z,100.00
2023-03-25T18:31:18.012Z,100.00
2023-03-25T18:33:48.645Z,100.00
2023-03-25T18:36:17.497Z,100.00
2023-03-25T18:38:48.237Z,100.00
2023-03-25T18:41:17.435Z,100.00
2023-03-25T18:43:50.227Z,100.00
2023-03-25T18:46:20.174Z,100.00
2023-03-25T18:48:50.640Z,100.00
2023-03-25T18:51:22.353Z,100.00
2023-03-25T18:53:51.617Z,100.00
2023-03-25T18:56:21.516Z,100.00
2023-03-25T18:58:51.196Z,100.00
2023-03-25T19:01:21.590Z,100.00
2023-03-25T19:03:50.531Z,100.00
2023-03-25T19:06:19.595Z,100.00
2023-03-25T19:08:48.250Z,100.00
2023-03-25T19:11:20.666Z,100.00
2023-03-25T19:13:51.820Z,100.00
2023-03-25T19:16:20.153Z,100.00
2023-03-25T19:18:47.909Z,100.00
2023-03-25T19:21:18.046Z,100.00
2023-03-25T19:23:46.267Z,100.00
2023-03-25T19:26:14.446Z,100.00
2023-03-25T19:28:42.367Z,100.00
2023-03-25T19:31:13.211Z,100.00
2023-03-25T19:33:41.190Z,100.00
2023-03-25T19:36:12.595Z,100.00
2023-03-25T19:38:40.236Z,100.00
2023-03-25T19:41:10.054Z,100.00
2023-03-25T19:43:37.796Z,100.00
2023-03-25T19:46:06.975Z,100.00
2023-03-25T19:48:36.984Z,100.00
2023-03-25T19:51:07.381Z,100.00
2023-03-25T19:53:35.386Z,100.00
2023-03-25T19:56:03.837Z,100.00
2023-03-25T19:58:31.852Z,100.00
2023-03-25T20:00:59.663Z,100.00
2023-03-25T20:03:31.119Z,100.00
2023-03-25T20:06:02.219Z,100.00
2023-03-25T20:08:32.192Z,100.00
2023-03-25T20:10:59.872Z,100.00
2023-03-25T20:13:27.655Z,100.00
2023-03-25T20:15:56.435Z,100.00
2023-03-25T20:18:24.291Z,100.00
2023-03-25T20:20:52.337Z,100.00
2023-03-25T20:23:23.682Z,100.00
2023-03-25T20:25:52.547Z,100.00
2023-03-25T20:28:20.335Z,100.00
2023-03-25T20:30:48.028Z,100.00
2023-03-25T20:33:15.953Z,100.00
2023-03-25T20:35:44.360Z,100.00
2023-03-25T20:38:14.186Z,100.00
2023-03-25T20:40:45.244Z,100.00
2023-03-25T20:43:14.572Z,100.00
2023-03-25T20:45:43.742Z,100.00
2023-03-25T20:48:12.133Z,100.00
2023-03-25T20:50:40.317Z,100.00
2023-03-25T20:53:08.907Z,100.00
2023-03-25T20:55:37.168Z,100.00
2023-03-25T20:58:09.504Z,100.00
2023-03-25T21:00:38.518Z,100.00
2023-03-25T21:03:10.729Z,100.00
2023-03-25T21:05:40.708Z,100.00
2023-03-25T21:08:09.126Z,100.00
2023-03-25T21:10:37.333Z,100.00
2023-03-25T21:13:08.890Z,100.00
2023-03-25T21:15:38.761Z,100.00
2023-03-25T21:18:08.864Z,100.00
2023-03-25T21:20:37.468Z,100.00
2023-03-25T21:23:07.897Z,100.00
2023-03-25T21:25:36.187Z,100.00
2023-03-25T21:28:05.749Z,100.00
2023-03-25T21:30:35.585Z,100.00
2023-03-25T21:33:04.255Z,100.00
2023-03-25T21:35:33.756Z,100.00
2023-03-25T21:38:02.780Z,100.00
2023-03-25T21:40:39.616Z,100.00
2023-03-25T21:43:08.407Z,100.00
2023-03-25T21:45:37.559Z,100.00
2023-03-25T21:48:08.274Z,100.00
2023-03-25T21:50:36.311Z,100.00
2023-03-25T21:53:08.232Z,100.00
2023-03-25T21:55:38.318Z,100.00
2023-03-25T21:58:06.463Z,100.00
2023-03-25T22:00:34.633Z,100.00
2023-03-25T22:03:06.426Z,100.00
2023-03-25T22:05:34.156Z,100.00
2023-03-25T22:08:01.826Z,100.00
2023-03-25T22:10:29.717Z,100.00
2023-03-25T22:12:57.439Z,100.00
2023-03-25T22:15:25.646Z,100.00
2023-03-25T22:17:53.567Z,100.00
2023-03-25T22:20:23.533Z,100.00
2023-03-25T22:22:53.753Z,100.00
2023-03-25T22:25:21.869Z,100.00
2023-03-25T22:27:49.681Z,100.00
2023-03-25T22:30:17.798Z,100.00
2023-03-25T22:32:45.498Z,100.00
2023-03-25T22:35:17.411Z,100.00
2023-03-25T22:37:52.892Z,100.00
2023-03-25T22:40:24.836Z,100.00
2023-03-25T22:42:54.508Z,100.00
2023-03-25T22:45:22.759Z,100.00
2023-03-25T22:47:51.007Z,100.00
2023-03-25T22:50:18.971Z,100.00
2023-03-25T22:52:48.004Z,100.00
2023-03-25T22:55:16.703Z,100.00
2023-03-25T22:57:44.384Z,100.00
2023-03-25T23:00:14.225Z,100.00
2023-03-25T23:02:42.548Z,100.00
2023-03-25T23:05:11.238Z,100.00
2023-03-25T23:07:38.964Z,100.00
2023-03-25T23:10:09.267Z,100.00
2023-03-25T23:12:37.048Z,100.00
2023-03-25T23:15:05.399Z,100.00
2023-03-25T23:17:34.942Z,100.00
2023-03-25T23:20:07.198Z,100.00
2023-03-25T23:22:34.893Z,100.00
2023-03-25T23:25:04.545Z,100.00
2023-03-25T23:27:35.361Z,100.00
2023-03-25T23:30:04.951Z,100.00
2023-03-25T23:32:34.044Z,100.00
2023-03-25T23:35:03.393Z,100.00
2023-03-25T23:37:33.833Z,100.00
2023-03-25T23:40:01.584Z,100.00
2023-03-25T23:42:35.397Z,100.00
2023-03-25T23:45:05.936Z,100.00
2023-03-25T23:47:33.736Z,100.00
2023-03-25T23:50:02.021Z,100.00
2023-03-25T23:52:29.805Z,100.00
2023-03-25T23:54:57.471Z,100.00
2023-03-25T23:57:25.256Z,100.00
2023-03-25T23:59:53.151Z,100.00
